Time;durP1;ratioP1;P1;durP2;ratioP2;P2;SDS_P1;SDS_P2;PMS_P1;PMS_P2;Temp;Humidity;BMP_temperature;BMP_pressure;BME280_temperature;BME280_humidity;BME280_pressure;Samples;Min_cycle;Max_cycle;Signal;HPM_P1;HPM_P2
2021/10/11 00:01:12;;;;;;;33.60;18.70;;;;;;;6.75;54.35;100607.10;1725170;82;21080;-40
2021/10/11 00:03:38;;;;;;;34.43;19.55;;;;;;;6.75;54.52;100607.65;1742656;80;21839;-40
2021/10/11 00:06:05;;;;;;;32.05;18.70;;;;;;;6.75;54.54;100609.00;1720225;82;21126;-40
2021/10/11 00:08:31;;;;;;;34.95;20.75;;;;;;;6.73;54.55;100597.16;1716429;82;20962;-37
2021/10/11 00:10:59;;;;;;;31.48;20.30;;;;;;;6.73;54.69;100601.20;1744351;80;20946;-37
2021/10/11 00:13:26;;;;;;;30.37;18.48;;;;;;;6.71;54.58;100598.58;1763534;80;21016;-37
2021/10/11 00:15:53;;;;;;;35.03;18.52;;;;;;;6.71;54.44;100597.23;1735545;81;21053;-37
2021/10/11 00:18:21;;;;;;;29.42;18.57;;;;;;;6.69;54.44;100594.03;1748581;81;20950;-37
2021/10/11 00:20:47;;;;;;;31.48;18.62;;;;;;;6.66;55.06;100591.95;1724981;81;21077;-37
2021/10/11 00:23:15;;;;;;;30.30;19.52;;;;;;;6.64;55.27;100586.05;1721748;82;21032;-37
2021/10/11 00:25:43;;;;;;;28.57;18.07;;;;;;;6.60;55.31;100583.18;1741301;82;20942;-36
2021/10/11 00:28:09;;;;;;;34.58;18.65;;;;;;;6.58;55.51;100583.25;1741272;80;21008;-37
2021/10/11 00:30:36;;;;;;;30.02;18.75;;;;;;;6.52;55.47;100576.63;1717246;80;21056;-37
2021/10/11 00:33:05;;;;;;;28.20;17.73;;;;;;;6.49;55.38;100571.82;1715515;83;21021;-37
2021/10/11 00:35:33;;;;;;;30.10;18.37;;;;;;;6.46;55.43;100571.64;1732956;81;20909;-37
2021/10/11 00:37:59;;;;;;;28.25;18.40;;;;;;;6.44;55.52;100569.23;1734821;82;20981;-37
2021/10/11 00:40:26;;;;;;;32.55;19.67;;;;;;;6.45;55.64;100570.03;1747224;81;21043;-37
2021/10/11 00:42:53;;;;;;;31.80;19.00;;;;;;;6.42;55.57;100562.57;1759807;81;21184;-37
2021/10/11 00:45:21;;;;;;;31.57;20.10;;;;;;;6.41;55.58;100569.05;1759652;81;20955;-36
2021/10/11 00:47:47;;;;;;;32.23;19.17;;;;;;;6.38;55.57;100557.00;1760080;81;20975;-37
2021/10/11 00:50:14;;;;;;;33.15;20.05;;;;;;;6.38;55.48;100573.70;1739791;81;22194;-37
2021/10/11 00:52:40;;;;;;;31.77;20.35;;;;;;;6.34;55.64;100569.45;1753643;81;21558;-37
2021/10/11 00:55:08;;;;;;;36.80;19.82;;;;;;;6.32;55.67;100568.97;1715421;83;21101;-36
2021/10/11 00:57:35;;;;;;;33.20;20.57;;;;;;;6.33;55.81;100576.50;1738693;81;20964;-37
2021/10/11 01:00:04;;;;;;;28.52;18.35;;;;;;;6.31;55.83;100574.09;1730334;81;21514;-37
2021/10/11 01:02:30;;;;;;;30.52;17.37;;;;;;;6.30;55.83;100569.01;1752760;81;21258;-37
2021/10/11 01:04:57;;;;;;;26.23;16.12;;;;;;;6.17;55.89;100570.62;1770698;80;21533;-37
2021/10/11 01:07:24;;;;;;;26.20;17.37;;;;;;;5.94;56.33;100569.74;1754145;81;21748;-37
2021/10/11 01:09:50;;;;;;;26.35;17.17;;;;;;;5.69;56.84;100570.98;1737710;81;20877;-37
2021/10/11 01:12:17;;;;;;;27.85;16.65;;;;;;;5.60;57.30;100564.70;1734226;81;21010;-37
2021/10/11 01:14:43;;;;;;;26.57;16.57;;;;;;;5.56;57.55;100561.02;1742961;80;21796;-37
2021/10/11 01:17:10;;;;;;;28.52;17.75;;;;;;;5.52;57.69;100550.56;1746422;81;21023;-36
2021/10/11 01:19:38;;;;;;;28.95;17.87;;;;;;;5.16;57.77;100498.53;1753672;81;21137;-37
2021/10/11 01:22:04;;;;;;;30.82;19.02;;;;;;;5.50;57.90;100551.97;1740301;80;21528;-37
2021/10/11 01:24:31;;;;;;;36.75;21.07;;;;;;;5.49;57.87;100551.17;1711794;83;21007;-37
2021/10/11 01:26:57;;;;;;;30.80;19.30;;;;;;;5.49;57.83;100547.69;1730642;81;21023;-37
2021/10/11 01:29:24;;;;;;;36.58;21.52;;;;;;;5.49;57.81;100548.48;1733116;81;21805;-37
2021/10/11 01:31:50;;;;;;;33.67;20.05;;;;;;;5.47;57.82;100547.97;1748403;81;21806;-37
2021/10/11 01:34:17;;;;;;;35.03;20.68;;;;;;;5.48;57.76;100545.53;1755239;81;21313;-37
2021/10/11 01:36:43;;;;;;;35.45;20.08;;;;;;;5.47;57.72;100543.94;1712268;82;21578;-37
2021/10/11 01:39:10;;;;;;;32.85;20.90;;;;;;;5.49;57.54;100539.61;1716692;82;21491;-37
2021/10/11 01:41:38;;;;;;;30.77;19.80;;;;;;;5.48;57.41;100542.05;1725528;82;20986;-37
2021/10/11 01:44:05;;;;;;;34.25;20.60;;;;;;;5.43;57.56;100541.59;1712291;82;21129;-37
2021/10/11 01:46:33;;;;;;;34.08;19.90;;;;;;;5.41;57.63;100542.45;1740383;82;20902;-37
2021/10/11 01:49:00;;;;;;;31.62;20.45;;;;;;;5.38;57.83;100536.30;1735721;81;20992;-37
2021/10/11 01:51:26;;;;;;;33.58;20.52;;;;;;;5.37;57.91;100534.73;1721259;82;21005;-38
2021/10/11 01:53:54;;;;;;;36.45;21.25;;;;;;;5.37;57.98;100531.23;1711850;82;21059;-37
2021/10/11 01:56:22;;;;;;;32.65;20.90;;;;;;;5.35;57.96;100531.53;1711605;83;21201;-37
2021/10/11 01:58:49;;;;;;;35.15;21.90;;;;;;;5.35;57.83;100532.88;1719503;82;20974;-37
2021/10/11 02:01:15;;;;;;;38.10;20.65;;;;;;;5.35;57.67;100523.45;1724292;82;21581;-37
2021/10/11 02:03:42;;;;;;;35.85;21.70;;;;;;;5.34;57.63;100517.83;1737703;81;20988;-37
2021/10/11 02:06:08;;;;;;;34.65;22.00;;;;;;;5.34;57.57;100514.34;1714541;82;21537;-37
2021/10/11 02:08:36;;;;;;;35.08;21.80;;;;;;;5.33;57.59;100517.57;1723812;82;21126;-38
2021/10/11 02:11:02;;;;;;;37.30;22.65;;;;;;;5.32;57.51;100516.00;1712220;82;20964;-37
2021/10/11 02:13:29;;;;;;;35.80;21.30;;;;;;;5.30;57.49;100515.48;1711797;82;21507;-37
2021/10/11 02:15:56;;;;;;;42.05;24.20;;;;;;;5.27;57.54;100510.70;1711752;82;21001;-37
2021/10/11 02:18:22;;;;;;;40.73;25.12;;;;;;;5.27;57.60;100509.91;1712689;82;21111;-37
2021/10/11 02:20:48;;;;;;;44.38;25.82;;;;;;;5.24;57.59;100508.05;1714265;82;21087;-37
2021/10/11 02:23:18;;;;;;;36.73;23.18;;;;;;;5.19;57.63;100497.92;1724999;82;21636;-37
2021/10/11 02:25:46;;;;;;;39.63;24.72;;;;;;;5.15;57.73;100500.95;1719314;82;21008;-37
2021/10/11 02:28:12;;;;;;;38.88;23.05;;;;;;;5.12;57.87;100497.53;1711515;82;21057;-37
2021/10/11 02:30:39;;;;;;;40.40;24.27;;;;;;;5.09;57.83;100492.72;1712115;82;21083;-37
2021/10/11 02:33:05;;;;;;;36.40;24.07;;;;;;;5.04;57.67;100488.23;1711793;83;21109;-37
2021/10/11 02:35:32;;;;;;;44.58;25.82;;;;;;;5.01;57.74;100490.72;1725774;82;20961;-37
2021/10/11 02:37:59;;;;;;;43.75;25.48;;;;;;;4.99;57.86;100481.59;1740006;82;20996;-37
2021/10/11 02:40:25;;;;;;;43.10;25.85;;;;;;;4.98;57.99;100483.27;1722857;82;21039;-37
2021/10/11 02:42:53;;;;;;;41.23;25.43;;;;;;;4.97;57.93;100477.63;1711572;82;21080;-38
2021/10/11 02:45:20;;;;;;;39.80;24.60;;;;;;;4.97;57.90;100474.40;1711599;82;21542;-38
2021/10/11 02:47:47;;;;;;;41.50;26.00;;;;;;;4.98;57.80;100469.28;1711755;82;21079;-38
2021/10/11 02:50:14;;;;;;;41.48;25.57;;;;;;;4.96;57.74;100462.59;1715135;82;21032;-37
2021/10/11 02:52:42;;;;;;;46.98;27.30;;;;;;;4.93;57.88;100463.99;1723459;82;21060;-37
2021/10/11 02:55:09;;;;;;;47.10;26.15;;;;;;;4.93;57.97;100465.88;1734604;82;21036;-38
2021/10/11 02:57:36;;;;;;;43.75;26.52;;;;;;;4.92;58.04;100458.91;1740963;82;21122;-37
2021/10/11 03:00:05;;;;;;;47.05;27.13;;;;;;;4.93;58.09;100459.16;1731989;82;21000;-37
2021/10/11 03:02:32;;;;;;;42.75;25.37;;;;;;;4.94;58.18;100456.73;1715774;82;20936;-37
2021/10/11 03:04:59;;;;;;;48.78;27.35;;;;;;;4.92;58.31;100458.91;1728618;80;21071;-37
2021/10/11 03:07:25;;;;;;;48.13;28.05;;;;;;;4.91;58.49;100454.07;1724985;82;21024;-38
2021/10/11 03:09:52;;;;;;;45.08;25.92;;;;;;;4.93;58.60;100455.13;1728547;82;21072;-37
2021/10/11 03:12:19;;;;;;;50.30;27.87;;;;;;;4.93;58.59;100450.55;1721990;80;21036;-37
2021/10/11 03:14:45;;;;;;;46.75;27.20;;;;;;;4.95;58.46;100449.70;1720689;82;21087;-37
2021/10/11 03:17:12;;;;;;;41.55;26.40;;;;;;;4.95;58.28;100448.89;1723426;82;21063;-37
2021/10/11 03:19:39;;;;;;;44.10;26.12;;;;;;;4.96;58.24;100443.78;1737975;82;21581;-37
2021/10/11 03:22:06;;;;;;;44.53;25.57;;;;;;;4.96;58.15;100439.75;1739948;82;21133;-37
2021/10/11 03:24:32;;;;;;;45.50;27.52;;;;;;;4.95;58.04;100442.18;1729014;82;20905;-37
2021/10/11 03:26:59;;;;;;;42.60;26.15;;;;;;;4.94;57.92;100436.00;1727876;82;21542;-37
2021/10/11 03:29:25;;;;;;;42.43;26.52;;;;;;;4.94;58.03;100433.89;1721998;82;21079;-37
2021/10/11 03:31:52;;;;;;;50.15;27.02;;;;;;;4.94;58.03;100426.60;1734033;82;21060;-37
2021/10/11 03:34:19;;;;;;;42.35;25.60;;;;;;;4.95;58.09;100427.40;1712874;82;21783;-37
2021/10/11 03:36:46;;;;;;;43.05;25.60;;;;;;;4.94;58.14;100427.17;1726389;81;21045;-37
2021/10/11 03:39:13;;;;;;;45.60;26.93;;;;;;;4.91;57.99;100425.86;1696783;82;21634;-37
2021/10/11 03:41:39;;;;;;;43.35;24.90;;;;;;;4.92;58.04;100425.31;1721781;81;21053;-37
2021/10/11 03:44:06;;;;;;;44.40;25.57;;;;;;;4.92;58.19;100425.31;1718956;81;21053;-38
2021/10/11 03:46:33;;;;;;;48.13;26.70;;;;;;;4.92;58.28;100424.77;1717549;83;21129;-38
2021/10/11 03:49:02;;;;;;;44.55;26.35;;;;;;;4.92;58.06;100426.66;1714819;82;21452;-38
2021/10/11 03:51:29;;;;;;;43.83;25.62;;;;;;;4.91;57.89;100423.72;1736054;82;21045;-38
2021/10/11 03:53:57;;;;;;;42.78;26.30;;;;;;;4.92;57.82;100421.28;1736895;82;20954;-38
2021/10/11 03:56:23;;;;;;;43.13;26.10;;;;;;;4.90;58.00;100418.89;1732463;82;21649;-38
2021/10/11 03:58:51;;;;;;;42.20;25.52;;;;;;;4.89;58.14;100420.55;1725334;82;21143;-38
2021/10/11 04:01:18;;;;;;;39.27;24.25;;;;;;;4.86;58.26;100411.71;1728040;82;22231;-38
2021/10/11 04:03:46;;;;;;;42.13;25.02;;;;;;;4.85;58.52;100416.83;1782262;79;21025;-38
2021/10/11 04:06:13;;;;;;;44.33;26.00;;;;;;;4.85;58.48;100416.83;1790931;80;21072;-38
2021/10/11 04:08:43;;;;;;;42.05;25.72;;;;;;;4.81;58.40;100422.00;1786824;79;21038;-38
2021/10/11 04:11:11;;;;;;;45.28;26.30;;;;;;;4.77;58.31;100421.80;1769267;80;21176;-38
2021/10/11 04:13:38;;;;;;;41.98;24.90;;;;;;;4.76;58.37;100420.20;1773286;80;20931;-38
2021/10/11 04:16:07;;;;;;;42.78;25.97;;;;;;;4.75;58.41;100414.57;1783343;80;21497;-38
2021/10/11 04:18:34;;;;;;;39.70;24.77;;;;;;;4.75;58.49;100415.12;1786412;80;21057;-38
2021/10/11 04:21:01;;;;;;;41.42;25.08;;;;;;;4.73;58.50;100409.26;1784437;80;20995;-38
2021/10/11 04:23:27;;;;;;;43.20;25.97;;;;;;;4.71;58.46;100406.86;1784526;79;21134;-38
2021/10/11 04:25:54;;;;;;;40.90;24.80;;;;;;;4.70;58.46;100407.14;1707636;82;21010;-38
2021/10/11 04:28:21;;;;;;;48.52;25.92;;;;;;;4.67;58.48;100401.83;1784916;79;20970;-38
2021/10/11 04:30:47;;;;;;;42.00;25.68;;;;;;;4.65;58.50;100398.62;1795665;79;21001;-38
2021/10/11 04:33:14;;;;;;;50.35;27.10;;;;;;;4.64;58.51;100398.40;1797588;79;21055;-38
2021/10/11 04:35:41;;;;;;;43.30;25.92;;;;;;;4.64;58.52;100390.34;1795027;79;21461;-38
2021/10/11 04:38:09;;;;;;;40.98;25.45;;;;;;;4.63;58.51;100387.40;1791131;80;20927;-38
2021/10/11 04:40:37;;;;;;;45.57;26.70;;;;;;;4.62;58.46;100376.39;1793582;79;21011;-38
2021/10/11 04:43:04;;;;;;;41.45;26.60;;;;;;;4.61;58.72;100380.71;1722441;83;22255;-38
2021/10/11 04:45:31;;;;;;;49.00;26.62;;;;;;;4.60;58.93;100379.14;1741087;82;21044;-38
2021/10/11 04:48:05;;;;;;;41.70;27.15;;;;;;;4.59;59.25;100377.00;1741561;82;21070;-38
2021/10/11 04:50:33;;;;;;;42.65;25.50;;;;;;;4.60;59.49;100372.42;1794212;79;21555;-39
2021/10/11 04:53:04;;;;;;;48.00;27.75;;;;;;;4.64;59.66;100374.23;1795423;79;21037;-38
2021/10/11 04:55:30;;;;;;;43.78;24.85;;;;;;;4.68;59.77;100369.85;1795256;79;21022;-38
2021/10/11 04:57:58;;;;;;;41.02;25.08;;;;;;;4.72;59.84;100366.82;1793773;79;21005;-38
2021/10/11 05:00:24;;;;;;;41.48;24.87;;;;;;;4.77;59.88;100361.36;1789965;79;21861;-38
2021/10/11 05:02:51;;;;;;;46.90;24.23;;;;;;;4.89;60.00;100362.78;1796015;79;21012;-38
2021/10/11 05:05:17;;;;;;;46.23;25.23;;;;;;;5.03;60.02;100364.92;1785345;78;20990;-38
2021/10/11 05:07:44;;;;;;;42.58;25.37;;;;;;;5.13;60.13;100362.05;1789808;80;21012;-38
2021/10/11 05:10:11;;;;;;;51.02;25.55;;;;;;;5.22;60.08;100362.39;1786831;80;21768;-38
2021/10/11 05:12:38;;;;;;;46.63;25.10;;;;;;;5.33;60.05;100366.20;1766287;78;21489;-38
2021/10/11 05:15:06;;;;;;;43.78;25.65;;;;;;;5.42;59.99;100363.84;1700014;84;21041;-38
2021/10/11 05:17:33;;;;;;;41.15;24.32;;;;;;;5.52;60.03;100366.33;1784965;80;21085;-38
2021/10/11 05:20:01;;;;;;;44.33;24.85;;;;;;;5.60;59.75;100374.25;1755727;80;21030;-38
2021/10/11 05:22:29;;;;;;;44.95;25.30;;;;;;;5.66;59.47;100368.45;1797232;79;21495;-38
2021/10/11 05:24:55;;;;;;;41.88;24.75;;;;;;;5.71;59.50;100374.30;1795125;79;21092;-39
2021/10/11 05:27:22;;;;;;;41.25;25.17;;;;;;;5.74;59.54;100371.53;1789127;79;21527;-38
2021/10/11 05:29:49;;;;;;;38.78;23.12;;;;;;;5.74;59.75;100375.57;1784640;80;20955;-38
2021/10/11 05:32:15;;;;;;;40.88;24.25;;;;;;;5.74;59.95;100370.98;1779921;79;21103;-38
2021/10/11 05:34:42;;;;;;;38.25;23.38;;;;;;;5.67;60.18;100368.70;1772206;81;21518;-38
2021/10/11 05:37:08;;;;;;;39.92;23.90;;;;;;;5.65;60.34;100376.30;1775275;80;21077;-38
2021/10/11 05:39:35;;;;;;;39.85;23.75;;;;;;;5.67;60.59;100375.97;1748880;80;20929;-38
2021/10/11 05:42:01;;;;;;;42.55;24.32;;;;;;;5.69;60.78;100377.27;1750031;81;21072;-38
2021/10/11 05:44:28;;;;;;;39.78;24.82;;;;;;;5.74;60.81;100380.41;1739443;80;21052;-38
2021/10/11 05:46:55;;;;;;;37.90;23.12;;;;;;;5.79;60.88;100378.95;1725166;79;21032;-38
2021/10/11 05:49:22;;;;;;;40.15;24.00;;;;;;;5.83;60.78;100376.44;1752253;81;21136;-38
2021/10/11 05:51:51;;;;;;;35.78;23.52;;;;;;;5.88;60.76;100380.40;1750507;80;20960;-38
2021/10/11 05:54:17;;;;;;;42.75;24.70;;;;;;;5.96;60.77;100385.05;1752282;81;21024;-38
2021/10/11 05:56:44;;;;;;;52.67;25.80;;;;;;;6.03;60.63;100385.44;1751156;81;21001;-38
2021/10/11 05:59:13;;;;;;;59.15;27.90;;;;;;;6.14;60.57;100387.36;1724069;81;21048;-38
2021/10/11 06:01:39;;;;;;;60.20;27.50;;;;;;;6.24;60.30;100393.31;1740478;80;21138;-38
2021/10/11 06:04:06;;;;;;;61.48;27.27;;;;;;;6.36;59.94;100391.40;1752726;81;20925;-38
2021/10/11 06:06:33;;;;;;;64.27;29.18;;;;;;;6.48;59.66;100391.11;1747907;80;21559;-38
2021/10/11 06:08:59;;;;;;;64.40;29.52;;;;;;;6.60;59.04;100391.08;1723998;81;21529;-38
2021/10/11 06:11:26;;;;;;;69.47;29.82;;;;;;;6.72;58.76;100382.70;1722690;83;21032;-38
2021/10/11 06:13:52;;;;;;;72.25;30.15;;;;;;;6.84;58.51;100383.45;1728634;80;21129;-38
2021/10/11 06:16:21;;;;;;;58.23;29.32;;;;;;;6.92;58.10;100377.33;1746458;80;21008;-38
2021/10/11 06:18:47;;;;;;;57.05;27.62;;;;;;;7.00;57.98;100375.22;1723111;81;21031;-38
2021/10/11 06:21:14;;;;;;;49.20;27.27;;;;;;;7.09;58.04;100375.25;1737418;80;21036;-38
2021/10/11 06:23:40;;;;;;;52.33;27.17;;;;;;;7.18;57.69;100370.13;1722291;83;21035;-38
2021/10/11 06:26:07;;;;;;;47.35;25.72;;;;;;;7.27;57.42;100367.45;1722149;83;21156;-38
2021/10/11 06:28:34;;;;;;;45.12;27.30;;;;;;;7.35;57.17;100367.51;1722254;83;21039;-38
2021/10/11 06:31:01;;;;;;;46.58;26.02;;;;;;;7.45;56.99;100366.97;1722311;83;21020;-38
2021/10/11 06:33:28;;;;;;;42.30;25.08;;;;;;;7.53;56.79;100366.19;1723422;81;21084;-38
2021/10/11 06:35:54;;;;;;;51.25;25.60;;;;;;;7.61;56.64;100358.10;1726199;80;20993;-38
2021/10/11 06:38:21;;;;;;;45.88;25.55;;;;;;;7.72;56.53;100354.55;1750692;81;21123;-38
2021/10/11 06:40:52;;;;;;;45.15;25.40;;;;;;;7.82;56.24;100358.30;1764865;81;20977;-38
2021/10/11 06:43:17;;;;;;;39.33;23.95;;;;;;;7.93;55.71;100357.44;1765129;81;21036;-38
2021/10/11 06:45:43;;;;;;;48.20;24.20;;;;;;;8.01;55.41;100352.03;1765811;80;21022;-38
2021/10/11 06:48:10;;;;;;;53.58;25.72;;;;;;;8.12;55.36;100356.01;1765566;81;21495;-38
2021/10/11 06:50:36;;;;;;;54.83;25.88;;;;;;;8.21;55.09;100350.05;1765155;80;21562;-38
2021/10/11 06:53:03;;;;;;;130.78;31.23;;;;;;;8.31;54.65;100347.59;1763961;81;21025;-38
2021/10/11 06:55:30;;;;;;;48.30;26.02;;;;;;;8.42;54.57;100340.75;1784217;79;20956;-38
2021/10/11 06:57:56;;;;;;;51.55;25.70;;;;;;;8.55;54.52;100347.08;1771190;79;21550;-38
2021/10/11 07:00:23;;;;;;;67.72;27.67;;;;;;;8.66;54.25;100342.92;1761330;80;21510;-39
2021/10/11 07:02:49;;;;;;;43.85;23.85;;;;;;;8.79;54.22;100350.03;1760318;81;21163;-38
2021/10/11 07:05:17;;;;;;;40.05;24.32;;;;;;;8.91;53.43;100340.67;1765610;81;21100;-38
2021/10/11 07:07:45;;;;;;;42.33;26.00;;;;;;;9.04;52.80;100341.03;1757247;80;20966;-38
2021/10/11 07:10:13;;;;;;;43.35;25.70;;;;;;;9.18;52.63;100337.30;1748868;82;21327;-39
2021/10/11 07:12:40;;;;;;;44.25;25.50;;;;;;;9.31;52.42;100337.07;1749124;82;21041;-39
2021/10/11 07:15:07;;;;;;;45.70;27.13;;;;;;;9.45;52.39;100340.33;1748772;82;21922;-39
2021/10/11 07:17:34;;;;;;;46.77;27.73;;;;;;;9.59;52.12;100337.38;1754690;79;20997;-39
2021/10/11 07:20:01;;;;;;;49.03;26.05;;;;;;;9.74;51.73;100336.79;1762006;81;20962;-39
2021/10/11 07:22:28;;;;;;;48.60;26.35;;;;;;;9.86;51.36;100326.59;1748888;81;20938;-38
2021/10/11 07:24:55;;;;;;;42.30;24.52;;;;;;;10.00;51.31;100323.05;1740955;81;21088;-39
2021/10/11 07:27:21;;;;;;;41.65;22.60;;;;;;;10.15;51.20;100318.94;1755529;81;21127;-38
2021/10/11 07:29:48;;;;;;;36.03;22.48;;;;;;;10.30;50.47;100319.70;1760659;80;21061;-38
2021/10/11 07:32:15;;;;;;;38.13;21.55;;;;;;;10.45;49.96;100319.08;1760298;81;21067;-39
2021/10/11 07:34:43;;;;;;;39.20;19.25;;;;;;;10.59;49.29;100314.70;1747113;81;20965;-39
2021/10/11 07:37:10;;;;;;;41.80;18.15;;;;;;;10.70;48.65;100307.13;1778971;79;21559;-39
2021/10/11 07:39:36;;;;;;;31.70;17.37;;;;;;;10.54;48.09;100262.84;1802212;79;21105;-39
2021/10/11 07:42:03;;;;;;;54.33;19.95;;;;;;;10.97;47.78;100304.91;1750129;80;20993;-38
2021/10/11 07:44:30;;;;;;;29.72;16.15;;;;;;;11.09;47.38;100303.55;1747443;82;21088;-39
2021/10/11 07:46:58;;;;;;;30.85;15.45;;;;;;;11.22;46.92;100298.36;1745420;82;20972;-39
2021/10/11 07:49:24;;;;;;;28.32;14.68;;;;;;;11.37;46.59;100306.38;1751317;81;21041;-38
2021/10/11 07:51:51;;;;;;;34.50;15.15;;;;;;;11.51;46.14;100302.17;1749192;82;21535;-39
2021/10/11 07:54:19;;;;;;;27.98;13.48;;;;;;;11.66;45.48;100298.74;1750694;81;21049;-39
2021/10/11 07:56:48;;;;;;;30.27;14.15;;;;;;;11.81;44.77;100290.47;1750019;82;21017;-39
2021/10/11 07:59:15;;;;;;;20.92;11.25;;;;;;;11.96;44.25;100288.35;1721379;80;21026;-39
2021/10/11 08:01:42;;;;;;;23.50;13.15;;;;;;;12.11;43.35;100293.61;1721485;83;21496;-39
2021/10/11 08:04:08;;;;;;;22.13;13.05;;;;;;;12.26;43.09;100282.55;1721232;83;21105;-39
2021/10/11 08:06:37;;;;;;;21.57;12.35;;;;;;;12.39;42.86;100279.42;1721634;82;21002;-39
2021/10/11 08:09:04;;;;;;;24.52;13.08;;;;;;;12.52;42.32;100278.22;1746427;82;20986;-39
2021/10/11 08:11:31;;;;;;;32.23;13.32;;;;;;;12.67;42.07;100283.45;1749392;82;21041;-39
2021/10/11 08:13:58;;;;;;;27.13;13.78;;;;;;;12.78;42.14;100283.12;1751380;82;21001;-38
2021/10/11 08:16:26;;;;;;;26.60;13.03;;;;;;;12.92;41.63;100275.91;1725337;82;21823;-39
2021/10/11 08:18:52;;;;;;;34.60;14.03;;;;;;;13.03;41.04;100276.92;1724666;82;21071;-39
2021/10/11 08:21:19;;;;;;;21.35;13.50;;;;;;;11.73;40.71;100053.13;1736191;82;21027;-38
2021/10/11 08:23:46;;;;;;;24.75;13.13;;;;;;;13.28;40.42;100276.97;1750338;82;21045;-39
2021/10/11 08:26:12;;;;;;;22.32;13.58;;;;;;;13.42;40.10;100265.02;1728578;82;21513;-39
2021/10/11 08:28:40;;;;;;;21.75;13.18;;;;;;;13.56;39.72;100265.10;1738291;82;21149;-39
2021/10/11 08:31:06;;;;;;;24.77;13.38;;;;;;;13.69;39.49;100266.00;1750755;82;20952;-39
2021/10/11 08:33:33;;;;;;;24.67;12.58;;;;;;;13.82;39.42;100255.16;1737290;81;21016;-38
2021/10/11 08:36:01;;;;;;;23.80;12.65;;;;;;;13.96;39.63;100257.94;1719895;82;21061;-39
2021/10/11 08:38:28;;;;;;;34.70;12.23;;;;;;;14.09;39.30;100252.54;1705327;82;21037;-39
2021/10/11 08:40:55;;;;;;;20.68;11.83;;;;;;;14.24;38.30;100248.93;1723144;82;21133;-39
2021/10/11 08:43:22;;;;;;;20.82;11.75;;;;;;;14.38;37.76;100245.13;1737303;81;20965;-39
2021/10/11 08:45:51;;;;;;;23.15;11.88;;;;;;;14.49;37.63;100239.86;1767080;80;21089;-39
2021/10/11 08:48:17;;;;;;;18.73;11.93;;;;;;;14.60;37.47;100240.83;1761045;80;21034;-38
2021/10/11 08:50:44;;;;;;;29.82;12.68;;;;;;;14.71;37.41;100249.42;1775196;79;21486;-38
2021/10/11 08:53:14;;;;;;;35.90;13.08;;;;;;;14.83;36.83;100232.04;1786618;80;21319;-39
2021/10/11 08:55:41;;;;;;;24.20;13.03;;;;;;;14.94;36.93;100235.73;1790159;78;20966;-39
2021/10/11 08:58:08;;;;;;;29.45;12.45;;;;;;;15.07;36.80;100228.89;1765289;80;20965;-39
2021/10/11 09:00:36;;;;;;;37.23;14.10;;;;;;;15.23;36.54;100236.93;1760160;81;21005;-39
2021/10/11 09:03:03;;;;;;;28.30;14.00;;;;;;;15.39;36.09;100232.66;1765828;81;21061;-39
2021/10/11 09:05:40;;;;;;;37.98;15.75;;;;;;;15.52;35.61;100225.83;1769144;81;21913;-39
2021/10/11 09:08:10;;;;;;;23.73;11.38;;;;;;;15.61;35.46;100223.02;1790335;79;20974;-39
2021/10/11 09:10:56;;;;;;;22.07;11.68;;;;;;;15.71;34.83;100218.84;1789814;79;21071;-39
2021/10/11 09:13:29;;;;;;;19.98;11.38;;;;;;;15.77;34.58;100215.99;1789493;80;20997;-39
2021/10/11 09:18:57;;;;;;;24.98;13.40;;;;;;;15.92;34.38;100216.36;1759128;80;21137;-39
2021/10/11 09:21:31;;;;;;;36.50;14.68;;;;;;;16.00;34.39;100204.91;1782479;80;20927;-39
2021/10/11 09:24:10;;;;;;;28.73;13.45;;;;;;;16.10;34.12;100209.70;1791422;79;21065;-39
2021/10/11 09:26:49;;;;;;;30.23;14.98;;;;;;;16.18;33.96;100211.33;1783955;79;21528;-39
2021/10/11 09:29:33;;;;;;;30.00;15.35;;;;;;;16.03;34.23;100165.27;1781013;80;21045;-39
2021/10/11 09:32:05;;;;;;;25.55;15.30;;;;;;;16.34;34.26;100197.41;1753680;80;21569;-39
2021/10/11 09:34:33;;;;;;;25.05;14.38;;;;;;;16.42;34.10;100191.62;1773645;80;21387;-39
2021/10/11 09:37:06;;;;;;;22.40;14.55;;;;;;;16.53;33.84;100189.77;1791839;79;21738;-37
2021/10/11 09:39:36;;;;;;;24.70;15.55;;;;;;;16.63;33.81;100184.78;1798617;79;21006;-39
2021/10/11 09:42:04;;;;;;;22.77;14.37;;;;;;;16.73;33.99;100182.13;1786906;79;21041;-39
2021/10/11 09:44:32;;;;;;;25.37;15.28;;;;;;;16.89;34.43;100191.44;1768111;81;21036;-39
2021/10/11 09:47:07;;;;;;;29.55;16.30;;;;;;;17.07;33.99;100190.16;1767961;81;21041;-40
2021/10/11 09:49:28;;;;;;;28.35;16.00;;;;;;;17.23;33.63;100187.30;1769121;78;21040;-39
2021/10/11 09:51:56;;;;;;;29.27;17.12;;;;;;;17.41;33.15;100195.63;1767882;81;20962;-39
2021/10/11 09:54:23;;;;;;;24.82;15.43;;;;;;;17.56;33.07;100190.41;1799388;79;20970;-39
2021/10/11 09:56:50;;;;;;;27.27;16.62;;;;;;;17.66;32.54;100185.58;1797937;79;21088;-39
2021/10/11 09:59:16;;;;;;;27.60;16.52;;;;;;;17.79;32.52;100181.89;1799531;79;20924;-39
2021/10/11 10:01:46;;;;;;;30.70;14.83;;;;;;;17.94;32.20;100179.97;1799620;79;21006;-39
2021/10/11 10:04:18;;;;;;;22.83;10.33;;;;;;;18.10;31.96;100176.28;1799890;79;20995;-39
2021/10/11 10:06:46;;;;;;;14.38;10.32;;;;;;;18.29;31.18;100175.91;1799227;79;20924;-39
2021/10/11 10:09:12;;;;;;;13.83;10.30;;;;;;;18.42;30.76;100173.55;1799490;79;21067;-39
2021/10/11 10:11:39;;;;;;;15.98;10.30;;;;;;;18.53;30.54;100166.92;1799932;79;21000;-39
2021/10/11 10:14:07;;;;;;;14.55;10.85;;;;;;;18.64;30.22;100171.80;1799745;79;21070;-39
2021/10/11 10:16:39;;;;;;;;;;;;;;;18.47;29.84;100119.03;1771845;79;21080;-40
2021/10/11 10:19:12;;;;;;;15.65;10.25;;;;;;;18.79;29.93;100156.66;1749261;80;20199;-39
2021/10/11 10:21:39;;;;;;;15.03;9.70;;;;;;;18.81;30.44;100149.61;1731944;82;22356;-39
2021/10/11 10:24:07;;;;;;;16.32;9.55;;;;;;;19.00;30.19;100144.27;1730087;82;20943;-39
2021/10/11 10:26:35;;;;;;;15.08;9.60;;;;;;;19.16;29.78;100139.70;1743326;82;20945;-40
2021/10/11 10:29:18;;;;;;;17.17;10.03;;;;;;;19.31;29.68;100137.09;1741532;82;20985;-39
2021/10/11 10:31:46;;;;;;;15.43;10.00;;;;;;;19.42;29.46;100135.85;1742824;81;21029;-39
2021/10/11 10:34:19;;;;;;;15.08;10.15;;;;;;;19.52;29.43;100133.67;1743474;82;21117;-39
2021/10/11 10:37:09;;;;;;;14.25;10.13;;;;;;;19.64;28.19;100128.31;1734442;82;20970;-39
2021/10/11 10:39:45;;;;;;;17.73;9.68;;;;;;;19.67;29.09;100128.09;1741583;82;20934;-39
2021/10/11 10:42:27;;;;;;;15.65;10.25;;;;;;;19.79;28.59;100127.64;1742960;82;21056;-39
2021/10/11 10:44:56;;;;;;;14.73;9.73;;;;;;;19.93;28.25;100124.20;1742572;82;21810;-40
2021/10/11 10:47:37;;;;;;;13.45;8.98;;;;;;;20.09;28.14;100121.54;1727034;82;21188;-40
2021/10/11 10:53:00;;;;;;;14.03;9.68;;;;;;;20.30;27.82;100111.72;1796020;79;22648;-39
2021/10/11 10:55:27;;;;;;;17.45;10.08;;;;;;;20.08;27.31;100106.20;1724663;80;20906;-39
2021/10/11 10:58:00;;;;;;;16.50;9.75;;;;;;;19.90;27.96;100107.70;1755267;81;21950;-39
2021/10/11 11:00:26;;;;;;;14.38;8.98;;;;;;;19.80;27.80;100099.70;1771706;80;21582;-39
2021/10/11 11:02:54;;;;;;;39.38;10.88;;;;;;;19.80;27.37;100085.95;1777363;80;21558;-39
2021/10/11 11:05:24;;;;;;;15.25;9.30;;;;;;;19.73;27.27;100080.50;1736757;82;21027;-39
2021/10/11 11:07:54;;;;;;;15.90;10.20;;;;;;;19.64;28.13;100084.89;1705448;83;21268;-39
2021/10/11 11:10:28;;;;;;;15.68;8.90;;;;;;;19.70;28.21;100075.03;1702852;83;21118;-39
2021/10/11 11:12:58;;;;;;;12.95;9.20;;;;;;;19.80;28.23;100076.31;1709970;83;20938;-39
2021/10/11 11:15:38;;;;;;;14.95;9.03;;;;;;;19.87;28.31;100061.14;1705757;83;21268;-39
2021/10/11 11:18:09;;;;;;;17.67;9.30;;;;;;;20.04;27.93;100051.19;1708808;83;21029;-39
2021/10/11 11:20:38;;;;;;;13.32;8.58;;;;;;;20.26;27.85;100056.68;1710205;83;21030;-40
2021/10/11 11:23:24;;;;;;;12.57;8.47;;;;;;;20.48;27.76;100044.12;1711039;83;21143;-39